sensor_id;sensor_type;location;lat;lon;timestamp;pressure;altitude;pressure_sealevel;temperature;humidity
78800;BME280;68148;55.328;86.106;2024-03-17T00:01:48;100561.66;;;-4.07;100.00
78800;BME280;68148;55.328;86.106;2024-03-17T00:04:17;100554.53;;;-4.01;100.00
78800;BME280;68148;55.328;86.106;2024-03-17T00:06:44;100557.16;;;-4.03;100.00
78800;BME280;68148;55.328;86.106;2024-03-17T00:09:24;100553.00;;;-4.06;100.00
78800;BME280;68148;55.328;86.106;2024-03-17T00:11:50;100561.59;;;-4.05;100.00
78800;BME280;68148;55.328;86.106;2024-03-17T00:14:16;100565.91;;;-4.06;100.00
78800;BME280;68148;55.328;86.106;2024-03-17T00:16:41;100568.41;;;-4.04;100.00
78800;BME280;68148;55.328;86.106;2024-03-17T00:19:08;100566.44;;;-3.99;100.00
78800;BME280;68148;55.328;86.106;2024-03-17T00:21:33;100582.19;;;-4.05;100.00
78800;BME280;68148;55.328;86.106;2024-03-17T00:24:03;100582.06;;;-4.02;100.00
78800;BME280;68148;55.328;86.106;2024-03-17T00:26:29;100582.94;;;-4.03;100.00
78800;BME280;68148;55.328;86.106;2024-03-17T00:28:55;100591.59;;;-4.04;100.00
78800;BME280;68148;55.328;86.106;2024-03-17T00:31:22;100603.56;;;-4.03;100.00
78800;BME280;68148;55.328;86.106;2024-03-17T00:33:47;100599.19;;;-4.01;100.00
78800;BME280;68148;55.328;86.106;2024-03-17T00:36:24;100592.44;;;-4.04;100.00
78800;BME280;68148;55.328;86.106;2024-03-17T00:38:51;100603.31;;;-3.97;100.00
78800;BME280;68148;55.328;86.106;2024-03-17T00:41:17;100611.78;;;-3.95;100.00
78800;BME280;68148;55.328;86.106;2024-03-17T00:43:43;100606.63;;;-3.95;100.00
78800;BME280;68148;55.328;86.106;2024-03-17T00:46:08;100609.81;;;-3.90;100.00
78800;BME280;68148;55.328;86.106;2024-03-17T00:48:34;100617.50;;;-3.88;100.00
78800;BME280;68148;55.328;86.106;2024-03-17T00:51:00;100621.81;;;-3.89;100.00
78800;BME280;68148;55.328;86.106;2024-03-17T00:53:28;100624.41;;;-3.89;100.00
78800;BME280;68148;55.328;86.106;2024-03-17T00:55:54;100619.03;;;-3.84;100.00
78800;BME280;68148;55.328;86.106;2024-03-17T00:58:21;100629.56;;;-3.89;100.00
78800;BME280;68148;55.328;86.106;2024-03-17T01:00:47;100632.84;;;-3.85;100.00
78800;BME280;68148;55.328;86.106;2024-03-17T01:03:12;100631.84;;;-3.83;100.00
78800;BME280;68148;55.328;86.106;2024-03-17T01:05:38;100637.81;;;-3.82;100.00
78800;BME280;68148;55.328;86.106;2024-03-17T01:08:04;100647.31;;;-3.83;100.00
78800;BME280;68148;55.328;86.106;2024-03-17T01:10:30;100647.03;;;-3.76;100.00
78800;BME280;68148;55.328;86.106;2024-03-17T01:12:56;100648.44;;;-3.88;100.00
78800;BME280;68148;55.328;86.106;2024-03-17T01:15:22;100654.56;;;-3.91;100.00
78800;BME280;68148;55.328;86.106;2024-03-17T01:17:49;100658.75;;;-3.88;100.00
78800;BME280;68148;55.328;86.106;2024-03-17T01:20:15;100662.09;;;-3.86;100.00
78800;BME280;68148;55.328;86.106;2024-03-17T01:22:40;100671.50;;;-3.85;100.00
78800;BME280;68148;55.328;86.106;2024-03-17T01:25:06;100659.03;;;-3.75;100.00
78800;BME280;68148;55.328;86.106;2024-03-17T01:27:32;100670.69;;;-3.68;100.00
78800;BME280;68148;55.328;86.106;2024-03-17T01:30:02;100673.66;;;-3.76;100.00
78800;BME280;68148;55.328;86.106;2024-03-17T01:32:28;100680.34;;;-3.72;100.00
78800;BME280;68148;55.328;86.106;2024-03-17T01:34:54;100686.25;;;-3.70;100.00
78800;BME280;68148;55.328;86.106;2024-03-17T01:37:19;100686.03;;;-3.65;100.00
78800;BME280;68148;55.328;86.106;2024-03-17T01:39:45;100687.44;;;-3.58;100.00
78800;BME280;68148;55.328;86.106;2024-03-17T01:42:11;100689.53;;;-3.66;100.00
78800;BME280;68148;55.328;86.106;2024-03-17T01:44:38;100694.56;;;-3.63;100.00
78800;BME280;68148;55.328;86.106;2024-03-17T01:47:04;100686.72;;;-3.62;100.00
78800;BME280;68148;55.328;86.106;2024-03-17T01:49:30;100688.13;;;-3.55;100.00
78800;BME280;68148;55.328;86.106;2024-03-17T01:51:56;100692.22;;;-3.50;100.00
78800;BME280;68148;55.328;86.106;2024-03-17T01:54:22;100687.72;;;-3.47;100.00
78800;BME280;68148;55.328;86.106;2024-03-17T01:56:49;100701.28;;;-3.42;100.00
78800;BME280;68148;55.328;86.106;2024-03-17T01:59:15;100698.38;;;-3.36;100.00
78800;BME280;68148;55.328;86.106;2024-03-17T02:01:43;100712.06;;;-3.34;100.00
78800;BME280;68148;55.328;86.106;2024-03-17T02:04:08;100710.31;;;-3.33;100.00
78800;BME280;68148;55.328;86.106;2024-03-17T02:06:34;100708.25;;;-3.44;100.00
78800;BME280;68148;55.328;86.106;2024-03-17T02:09:00;100710.53;;;-3.38;100.00
78800;BME280;68148;55.328;86.106;2024-03-17T02:11:31;100712.13;;;-3.35;100.00
78800;BME280;68148;55.328;86.106;2024-03-17T02:14:00;100714.56;;;-3.32;100.00
78800;BME280;68148;55.328;86.106;2024-03-17T02:16:27;100710.09;;;-3.29;100.00
78800;BME280;68148;55.328;86.106;2024-03-17T02:18:56;100718.59;;;-3.27;100.00
78800;BME280;68148;55.328;86.106;2024-03-17T02:21:23;100716.41;;;-3.17;100.00
78800;BME280;68148;55.328;86.106;2024-03-17T02:23:48;100728.69;;;-3.05;100.00
78800;BME280;68148;55.328;86.106;2024-03-17T02:26:14;100730.44;;;-3.05;100.00
78800;BME280;68148;55.328;86.106;2024-03-17T02:28:41;100731.00;;;-2.98;100.00
78800;BME280;68148;55.328;86.106;2024-03-17T02:31:12;100732.44;;;-2.93;100.00
78800;BME280;68148;55.328;86.106;2024-03-17T02:33:38;100739.13;;;-2.89;100.00
78800;BME280;68148;55.328;86.106;2024-03-17T02:36:08;100743.69;;;-2.77;100.00
78800;BME280;68148;55.328;86.106;2024-03-17T02:38:36;100729.56;;;-2.69;100.00
78800;BME280;68148;55.328;86.106;2024-03-17T02:41:02;100736.75;;;-2.59;100.00
78800;BME280;68148;55.328;86.106;2024-03-17T02:43:28;100751.28;;;-2.56;100.00
78800;BME280;68148;55.328;86.106;2024-03-17T02:45:59;100763.44;;;-2.58;100.00
78800;BME280;68148;55.328;86.106;2024-03-17T02:48:25;100770.22;;;-2.73;100.00
78800;BME280;68148;55.328;86.106;2024-03-17T02:50:54;100776.81;;;-2.85;100.00
78800;BME280;68148;55.328;86.106;2024-03-17T02:53:19;100789.50;;;-2.80;100.00
78800;BME280;68148;55.328;86.106;2024-03-17T02:55:45;100786.16;;;-2.82;100.00
78800;BME280;68148;55.328;86.106;2024-03-17T02:58:11;100784.94;;;-2.75;100.00
78800;BME280;68148;55.328;86.106;2024-03-17T03:00:37;100796.41;;;-2.81;100.00
78800;BME280;68148;55.328;86.106;2024-03-17T03:03:03;100795.50;;;-2.80;100.00
78800;BME280;68148;55.328;86.106;2024-03-17T03:05:29;100793.59;;;-2.76;100.00
78800;BME280;68148;55.328;86.106;2024-03-17T03:07:54;100801.59;;;-2.63;100.00
78800;BME280;68148;55.328;86.106;2024-03-17T03:10:20;100794.81;;;-2.83;100.00
78800;BME280;68148;55.328;86.106;2024-03-17T03:12:46;100800.13;;;-2.86;100.00
78800;BME280;68148;55.328;86.106;2024-03-17T03:15:12;100799.97;;;-2.83;100.00
78800;BME280;68148;55.328;86.106;2024-03-17T03:17:37;100799.91;;;-2.82;100.00
78800;BME280;68148;55.328;86.106;2024-03-17T03:20:06;100795.50;;;-2.80;100.00
78800;BME280;68148;55.328;86.106;2024-03-17T03:22:34;100797.00;;;-2.75;100.00
78800;BME280;68148;55.328;86.106;2024-03-17T03:25:00;100798.06;;;-2.80;100.00
78800;BME280;68148;55.328;86.106;2024-03-17T03:27:27;100795.25;;;-2.75;100.00
78800;BME280;68148;55.328;86.106;2024-03-17T03:29:53;100788.91;;;-2.68;100.00
78800;BME280;68148;55.328;86.106;2024-03-17T03:32:20;100789.59;;;-2.64;100.00
78800;BME280;68148;55.328;86.106;2024-03-17T03:34:46;100788.34;;;-2.57;100.00
78800;BME280;68148;55.328;86.106;2024-03-17T03:37:12;100796.72;;;-2.52;100.00
78800;BME280;68148;55.328;86.106;2024-03-17T03:39:43;100799.81;;;-2.45;100.00
78800;BME280;68148;55.328;86.106;2024-03-17T03:42:09;100808.41;;;-2.45;100.00
78800;BME280;68148;55.328;86.106;2024-03-17T03:44:35;100811.09;;;-2.46;100.00
78800;BME280;68148;55.328;86.106;2024-03-17T03:47:01;100804.84;;;-2.42;100.00
78800;BME280;68148;55.328;86.106;2024-03-17T03:49:27;100813.44;;;-2.42;100.00
78800;BME280;68148;55.328;86.106;2024-03-17T03:51:52;100814.72;;;-2.50;100.00
78800;BME280;68148;55.328;86.106;2024-03-17T03:54:18;100823.69;;;-2.40;100.00
78800;BME280;68148;55.328;86.106;2024-03-17T03:57:04;100815.88;;;-2.39;100.00
78800;BME280;68148;55.328;86.106;2024-03-17T03:59:30;100819.75;;;-2.30;100.00
78800;BME280;68148;55.328;86.106;2024-03-17T04:01:57;100824.97;;;-2.32;100.00
78800;BME280;68148;55.328;86.106;2024-03-17T04:04:23;100821.31;;;-2.28;100.00
78800;BME280;68148;55.328;86.106;2024-03-17T04:06:49;100818.06;;;-2.14;100.00
78800;BME280;68148;55.328;86.106;2024-03-17T04:09:15;100833.34;;;-2.09;100.00
78800;BME280;68148;55.328;86.106;2024-03-17T04:11:41;100832.53;;;-1.94;100.00
78800;BME280;68148;55.328;86.106;2024-03-17T04:14:07;100829.47;;;-1.85;100.00
78800;BME280;68148;55.328;86.106;2024-03-17T04:16:33;100834.81;;;-1.88;100.00
78800;BME280;68148;55.328;86.106;2024-03-17T04:18:58;100847.00;;;-2.07;100.00
78800;BME280;68148;55.328;86.106;2024-03-17T04:21:25;100859.84;;;-2.06;100.00
78800;BME280;68148;55.328;86.106;2024-03-17T04:23:51;100847.56;;;-2.18;100.00
78800;BME280;68148;55.328;86.106;2024-03-17T04:26:20;100851.00;;;-2.17;100.00
78800;BME280;68148;55.328;86.106;2024-03-17T04:28:46;100853.13;;;-2.25;100.00
78800;BME280;68148;55.328;86.106;2024-03-17T04:31:11;100858.63;;;-1.98;100.00
78800;BME280;68148;55.328;86.106;2024-03-17T04:33:37;100859.19;;;-2.09;100.00
78800;BME280;68148;55.328;86.106;2024-03-17T04:36:06;100868.44;;;-1.88;100.00
78800;BME280;68148;55.328;86.106;2024-03-17T04:38:36;100863.53;;;-1.77;100.00
78800;BME280;68148;55.328;86.106;2024-03-17T04:41:02;100860.16;;;-1.61;100.00
78800;BME280;68148;55.328;86.106;2024-03-17T04:43:28;100859.28;;;-1.78;100.00
78800;BME280;68148;55.328;86.106;2024-03-17T04:46:04;100857.19;;;-1.87;100.00
78800;BME280;68148;55.328;86.106;2024-03-17T04:48:33;100853.63;;;-1.68;100.00
78800;BME280;68148;55.328;86.106;2024-03-17T04:50:59;100857.41;;;-1.58;100.00
78800;BME280;68148;55.328;86.106;2024-03-17T04:53:26;100864.50;;;-1.46;100.00
78800;BME280;68148;55.328;86.106;2024-03-17T04:56:21;100858.34;;;-1.43;100.00
78800;BME280;68148;55.328;86.106;2024-03-17T04:58:47;100858.69;;;-1.34;100.00
78800;BME280;68148;55.328;86.106;2024-03-17T05:01:13;100859.25;;;-1.29;100.00
78800;BME280;68148;55.328;86.106;2024-03-17T05:03:39;100865.63;;;-1.18;100.00
78800;BME280;68148;55.328;86.106;2024-03-17T05:06:05;100867.19;;;-1.16;100.00
78800;BME280;68148;55.328;86.106;2024-03-17T05:08:32;100870.38;;;-0.95;100.00
78800;BME280;68148;55.328;86.106;2024-03-17T05:10:59;100871.13;;;-1.24;100.00
78800;BME280;68148;55.328;86.106;2024-03-17T05:13:26;100881.09;;;-1.33;100.00
78800;BME280;68148;55.328;86.106;2024-03-17T05:15:54;100885.44;;;-1.17;100.00
78800;BME280;68148;55.328;86.106;2024-03-17T05:18:24;100886.59;;;-1.07;100.00
78800;BME280;68148;55.328;86.106;2024-03-17T05:21:03;100888.09;;;-1.19;100.00
78800;BME280;68148;55.328;86.106;2024-03-17T05:23:31;100888.59;;;-0.96;100.00
78800;BME280;68148;55.328;86.106;2024-03-17T05:25:58;100900.13;;;-0.86;100.00
78800;BME280;68148;55.328;86.106;2024-03-17T05:28:26;100882.22;;;-0.75;100.00
78800;BME280;68148;55.328;86.106;2024-03-17T05:30:52;100888.66;;;-0.66;100.00
78800;BME280;68148;55.328;86.106;2024-03-17T05:33:22;100883.22;;;-0.62;100.00
78800;BME280;68148;55.328;86.106;2024-03-17T05:35:51;100897.41;;;-0.53;100.00
78800;BME280;68148;55.328;86.106;2024-03-17T05:38:17;100895.75;;;-0.54;99.41
78800;BME280;68148;55.328;86.106;2024-03-17T05:40:43;100895.03;;;-0.72;99.45
78800;BME280;68148;55.328;86.106;2024-03-17T05:43:08;100905.63;;;-0.61;100.00
78800;BME280;68148;55.328;86.106;2024-03-17T05:45:35;100902.28;;;-0.47;100.00
78800;BME280;68148;55.328;86.106;2024-03-17T05:48:01;100911.19;;;-0.37;100.00
78800;BME280;68148;55.328;86.106;2024-03-17T05:50:27;100908.50;;;-0.35;99.66
78800;BME280;68148;55.328;86.106;2024-03-17T05:52:53;100906.72;;;-0.35;99.34
78800;BME280;68148;55.328;86.106;2024-03-17T05:55:19;100911.91;;;-0.35;99.11
78800;BME280;68148;55.328;86.106;2024-03-17T05:57:45;100905.09;;;-0.21;100.00
78800;BME280;68148;55.328;86.106;2024-03-17T06:00:11;100911.06;;;-0.19;99.91
78800;BME280;68148;55.328;86.106;2024-03-17T06:02:41;100910.22;;;-0.20;98.47
78800;BME280;68148;55.328;86.106;2024-03-17T06:05:17;100909.00;;;-0.29;98.87
78800;BME280;68148;55.328;86.106;2024-03-17T06:07:43;100903.63;;;-0.26;98.08
78800;BME280;68148;55.328;86.106;2024-03-17T06:10:09;100909.00;;;-0.29;98.28
78800;BME280;68148;55.328;86.106;2024-03-17T06:12:34;100907.25;;;-0.14;98.35
78800;BME280;68148;55.328;86.106;2024-03-17T06:15:02;100911.22;;;-0.22;97.34
78800;BME280;68148;55.328;86.106;2024-03-17T06:17:38;100919.91;;;-0.08;97.01
78800;BME280;68148;55.328;86.106;2024-03-17T06:20:11;100922.13;;;0.13;98.02
78800;BME280;68148;55.328;86.106;2024-03-17T06:22:37;100907.38;;;-0.01;97.47
78800;BME280;68148;55.328;86.106;2024-03-17T06:25:03;100915.09;;;0.01;97.84
78800;BME280;68148;55.328;86.106;2024-03-17T06:27:28;100909.94;;;0.15;96.54
78800;BME280;68148;55.328;86.106;2024-03-17T06:29:55;100910.41;;;0.21;97.22
78800;BME280;68148;55.328;86.106;2024-03-17T06:32:21;100916.78;;;0.16;96.74
78800;BME280;68148;55.328;86.106;2024-03-17T06:34:47;100906.22;;;0.19;96.53
78800;BME280;68148;55.328;86.106;2024-03-17T06:37:12;100907.22;;;0.16;95.14
78800;BME280;68148;55.328;86.106;2024-03-17T06:39:38;100910.19;;;0.24;96.52
78800;BME280;68148;55.328;86.106;2024-03-17T06:42:04;100914.41;;;0.27;94.92
78800;BME280;68148;55.328;86.106;2024-03-17T06:44:33;100914.84;;;0.34;95.77
78800;BME280;68148;55.328;86.106;2024-03-17T06:47:00;100901.69;;;0.51;97.03
78800;BME280;68148;55.328;86.106;2024-03-17T06:49:26;100908.66;;;0.36;94.59
78800;BME280;68148;55.328;86.106;2024-03-17T06:51:58;100908.25;;;0.42;95.73
78800;BME280;68148;55.328;86.106;2024-03-17T06:54:24;100914.94;;;0.46;96.56
78800;BME280;68148;55.328;86.106;2024-03-17T06:56:56;100916.25;;;0.54;96.92
78800;BME280;68148;55.328;86.106;2024-03-17T06:59:42;100916.53;;;0.63;95.65
78800;BME280;68148;55.328;86.106;2024-03-17T07:02:17;100907.03;;;0.77;95.62
78800;BME280;68148;55.328;86.106;2024-03-17T07:04:44;100910.75;;;0.87;94.40
78800;BME280;68148;55.328;86.106;2024-03-17T07:07:10;100907.53;;;0.55;93.97
78800;BME280;68148;55.328;86.106;2024-03-17T07:09:36;100916.72;;;0.60;93.57
78800;BME280;68148;55.328;86.106;2024-03-17T07:12:02;100910.22;;;0.53;93.98
78800;BME280;68148;55.328;86.106;2024-03-17T07:14:28;100920.53;;;0.69;96.23
78800;BME280;68148;55.328;86.106;2024-03-17T07:16:54;100912.16;;;0.64;95.36
78800;BME280;68148;55.328;86.106;2024-03-17T07:19:19;100927.09;;;0.74;95.62
78800;BME280;68148;55.328;86.106;2024-03-17T07:21:45;100920.94;;;0.90;94.25
78800;BME280;68148;55.328;86.106;2024-03-17T07:24:11;100923.19;;;0.96;93.49
78800;BME280;68148;55.328;86.106;2024-03-17T07:26:39;100917.56;;;1.16;93.13
78800;BME280;68148;55.328;86.106;2024-03-17T07:29:05;100920.72;;;1.21;92.81
78800;BME280;68148;55.328;86.106;2024-03-17T07:31:30;100921.69;;;0.92;92.03
78800;BME280;68148;55.328;86.106;2024-03-17T07:33:57;100920.66;;;1.09;94.11
78800;BME280;68148;55.328;86.106;2024-03-17T07:36:23;100924.59;;;1.29;92.76
78800;BME280;68148;55.328;86.106;2024-03-17T07:38:50;100920.53;;;1.52;94.95
78800;BME280;68148;55.328;86.106;2024-03-17T07:41:16;100913.28;;;1.69;92.77
78800;BME280;68148;55.328;86.106;2024-03-17T07:43:41;100913.28;;;1.69;92.34
78800;BME280;68148;55.328;86.106;2024-03-17T07:46:09;100915.47;;;1.75;92.50
78800;BME280;68148;55.328;86.106;2024-03-17T07:48:36;100924.19;;;2.02;93.30
78800;BME280;68148;55.328;86.106;2024-03-17T07:51:10;100923.66;;;2.09;91.73
78800;BME280;68148;55.328;86.106;2024-03-17T07:53:41;100917.88;;;1.79;91.08
78800;BME280;68148;55.328;86.106;2024-03-17T07:56:11;100921.28;;;1.66;90.77
78800;BME280;68148;55.328;86.106;2024-03-17T07:58:45;100924.72;;;1.67;90.61
78800;BME280;68148;55.328;86.106;2024-03-17T08:01:13;100922.25;;;1.78;92.68
78800;BME280;68148;55.328;86.106;2024-03-17T08:03:41;100920.66;;;1.63;90.98
78800;BME280;68148;55.328;86.106;2024-03-17T08:06:08;100928.31;;;1.52;93.51
78800;BME280;68148;55.328;86.106;2024-03-17T08:08:34;100928.03;;;1.56;91.62
78800;BME280;68148;55.328;86.106;2024-03-17T08:11:00;100930.09;;;1.51;92.08
78800;BME280;68148;55.328;86.106;2024-03-17T08:13:26;100929.59;;;1.59;93.15
78800;BME280;68148;55.328;86.106;2024-03-17T08:15:57;100928.66;;;1.33;91.78
78800;BME280;68148;55.328;86.106;2024-03-17T08:18:23;100924.00;;;1.38;92.96
78800;BME280;68148;55.328;86.106;2024-03-17T08:20:50;100932.06;;;1.47;94.35
78800;BME280;68148;55.328;86.106;2024-03-17T08:23:15;100932.88;;;1.48;95.01
78800;BME280;68148;55.328;86.106;2024-03-17T08:25:54;100936.06;;;1.39;94.41
78800;BME280;68148;55.328;86.106;2024-03-17T08:28:24;100932.59;;;1.11;92.30
78800;BME280;68148;55.328;86.106;2024-03-17T08:30:54;100948.13;;;1.13;94.99
78800;BME280;68148;55.328;86.106;2024-03-17T08:33:40;100943.00;;;1.11;95.44
78800;BME280;68148;55.328;86.106;2024-03-17T08:36:07;100941.16;;;1.13;96.43
78800;BME280;68148;55.328;86.106;2024-03-17T08:38:34;100941.56;;;0.93;94.80
78800;BME280;68148;55.328;86.106;2024-03-17T08:41:04;100946.69;;;0.94;95.25
78800;BME280;68148;55.328;86.106;2024-03-17T08:43:32;100945.28;;;0.89;94.23
78800;BME280;68148;55.328;86.106;2024-03-17T08:45:59;100945.47;;;1.00;96.82
78800;BME280;68148;55.328;86.106;2024-03-17T08:48:26;100943.75;;;1.13;95.79
78800;BME280;68148;55.328;86.106;2024-03-17T08:50:53;100935.97;;;1.13;96.06
78800;BME280;68148;55.328;86.106;2024-03-17T08:53:19;100937.06;;;1.09;95.81
78800;BME280;68148;55.328;86.106;2024-03-17T08:56:06;100941.81;;;1.03;94.05
78800;BME280;68148;55.328;86.106;2024-03-17T08:58:32;100930.22;;;0.94;96.08
78800;BME280;68148;55.328;86.106;2024-03-17T09:00:57;100939.31;;;1.01;95.07
78800;BME280;68148;55.328;86.106;2024-03-17T09:03:24;100936.16;;;1.10;94.76
78800;BME280;68148;55.328;86.106;2024-03-17T09:05:52;100931.78;;;1.11;95.18
78800;BME280;68148;55.328;86.106;2024-03-17T09:08:22;100928.41;;;1.23;97.62
78800;BME280;68148;55.328;86.106;2024-03-17T09:10:51;100927.41;;;1.11;94.40
78800;BME280;68148;55.328;86.106;2024-03-17T09:13:24;100935.13;;;0.98;93.48
78800;BME280;68148;55.328;86.106;2024-03-17T09:15:54;100936.53;;;1.04;94.17
78800;BME280;68148;55.328;86.106;2024-03-17T09:18:20;100934.38;;;1.11;95.54
78800;BME280;68148;55.328;86.106;2024-03-17T09:20:46;100942.00;;;1.14;96.27
78800;BME280;68148;55.328;86.106;2024-03-17T09:23:20;100937.19;;;1.08;95.40
78800;BME280;68148;55.328;86.106;2024-03-17T09:26:03;100938.69;;;0.83;95.22
78800;BME280;68148;55.328;86.106;2024-03-17T09:28:31;100942.66;;;0.89;95.88
78800;BME280;68148;55.328;86.106;2024-03-17T09:31:00;100937.03;;;0.82;96.89
78800;BME280;68148;55.328;86.106;2024-03-17T09:33:28;100940.19;;;0.73;96.69
78800;BME280;68148;55.328;86.106;2024-03-17T09:35:58;100943.69;;;0.72;96.23
78800;BME280;68148;55.328;86.106;2024-03-17T09:38:24;100945.84;;;0.80;97.51
78800;BME280;68148;55.328;86.106;2024-03-17T09:40:51;100943.91;;;0.83;97.66
78800;BME280;68148;55.328;86.106;2024-03-17T09:43:17;100942.50;;;0.78;96.20
78800;BME280;68148;55.328;86.106;2024-03-17T09:45:42;100944.19;;;0.79;97.17
78800;BME280;68148;55.328;86.106;2024-03-17T09:48:14;100952.97;;;0.76;97.00
78800;BME280;68148;55.328;86.106;2024-03-17T09:50:43;100944.81;;;0.68;96.54
78800;BME280;68148;55.328;86.106;2024-03-17T09:53:16;100945.00;;;0.79;98.28
78800;BME280;68148;55.328;86.106;2024-03-17T09:55:42;100949.38;;;0.79;98.09
78800;BME280;68148;55.328;86.106;2024-03-17T09:58:17;100945.13;;;0.78;97.29
78800;BME280;68148;55.328;86.106;2024-03-17T10:00:43;100950.31;;;0.78;97.83
78800;BME280;68148;55.328;86.106;2024-03-17T10:03:39;100952.16;;;0.75;96.21
78800;BME280;68148;55.328;86.106;2024-03-17T10:06:05;100950.66;;;0.71;96.94
78800;BME280;68148;55.328;86.106;2024-03-17T10:08:31;100952.25;;;0.74;98.92
78800;BME280;68148;55.328;86.106;2024-03-17T10:10:57;100951.50;;;0.72;98.06
78800;BME280;68148;55.328;86.106;2024-03-17T10:13:22;100949.84;;;0.71;96.51
78800;BME280;68148;55.328;86.106;2024-03-17T10:15:48;100945.66;;;0.68;96.28
78800;BME280;68148;55.328;86.106;2024-03-17T10:18:22;100953.81;;;0.77;98.53
78800;BME280;68148;55.328;86.106;2024-03-17T10:20:57;100952.25;;;0.74;98.39
78800;BME280;68148;55.328;86.106;2024-03-17T10:23:23;100950.50;;;0.74;98.92
78800;BME280;68148;55.328;86.106;2024-03-17T10:25:49;100944.09;;;0.66;98.97
78800;BME280;68148;55.328;86.106;2024-03-17T10:28:16;100953.63;;;0.51;98.46
78800;BME280;68148;55.328;86.106;2024-03-17T10:30:42;100953.56;;;0.53;99.49
78800;BME280;68148;55.328;86.106;2024-03-17T10:33:23;100951.78;;;0.39;97.81
78800;BME280;68148;55.328;86.106;2024-03-17T10:35:49;100951.78;;;0.39;98.51
78800;BME280;68148;55.328;86.106;2024-03-17T10:38:14;100953.34;;;0.41;99.12
78800;BME280;68148;55.328;86.106;2024-03-17T10:40:41;100946.00;;;0.34;98.58
78800;BME280;68148;55.328;86.106;2024-03-17T10:43:10;100951.13;;;0.35;100.00
78800;BME280;68148;55.328;86.106;2024-03-17T10:45:37;100955.88;;;0.13;97.93
78800;BME280;68148;55.328;86.106;2024-03-17T10:48:07;100960.25;;;0.12;98.53
78800;BME280;68148;55.328;86.106;2024-03-17T10:50:37;100960.47;;;0.23;100.00
78800;BME280;68148;55.328;86.106;2024-03-17T10:53:05;100954.72;;;0.18;100.00
78800;BME280;68148;55.328;86.106;2024-03-17T10:55:34;100956.81;;;0.12;100.00
78800;BME280;68148;55.328;86.106;2024-03-17T10:58:15;100961.19;;;0.11;100.00
78800;BME280;68148;55.328;86.106;2024-03-17T11:00:46;100958.19;;;0.03;100.00
78800;BME280;68148;55.328;86.106;2024-03-17T11:03:13;100958.38;;;0.00;100.00
78800;BME280;68148;55.328;86.106;2024-03-17T11:05:40;100959.56;;;-0.06;100.00
78800;BME280;68148;55.328;86.106;2024-03-17T11:08:15;100955.19;;;-0.05;100.00
78800;BME280;68148;55.328;86.106;2024-03-17T11:10:49;100951.19;;;-0.11;100.00
78800;BME280;68148;55.328;86.106;2024-03-17T11:13:29;100949.13;;;-0.20;99.87
78800;BME280;68148;55.328;86.106;2024-03-17T11:15:56;100956.97;;;-0.21;100.00
78800;BME280;68148;55.328;86.106;2024-03-17T11:20:58;100961.59;;;-0.27;100.00
78800;BME280;68148;55.328;86.106;2024-03-17T11:23:31;100959.94;;;-0.28;100.00
78800;BME280;68148;55.328;86.106;2024-03-17T11:25:57;100946.81;;;-0.24;100.00
78800;BME280;68148;55.328;86.106;2024-03-17T11:31:40;100939.59;;;-0.19;100.00
78800;BME280;68148;55.328;86.106;2024-03-17T11:34:36;100935.75;;;-0.28;100.00
78800;BME280;68148;55.328;86.106;2024-03-17T11:37:03;100936.19;;;-0.36;100.00
78800;BME280;68148;55.328;86.106;2024-03-17T11:39:51;100941.63;;;-0.40;100.00
78800;BME280;68148;55.328;86.106;2024-03-17T11:42:17;100940.31;;;-0.47;100.00
78800;BME280;68148;55.328;86.106;2024-03-17T11:45:09;100932.34;;;-0.44;100.00
78800;BME280;68148;55.328;86.106;2024-03-17T11:47:43;100933.19;;;-0.44;100.00
78800;BME280;68148;55.328;86.106;2024-03-17T11:50:10;100930.78;;;-0.47;100.00
78800;BME280;68148;55.328;86.106;2024-03-17T11:52:46;100928.38;;;-0.50;100.00
78800;BME280;68148;55.328;86.106;2024-03-17T11:55:23;100927.53;;;-0.51;100.00
78800;BME280;68148;55.328;86.106;2024-03-17T11:57:55;100920.09;;;-0.57;100.00
78800;BME280;68148;55.328;86.106;2024-03-17T12:00:23;100922.09;;;-0.62;100.00
78800;BME280;68148;55.328;86.106;2024-03-17T12:02:49;100924.53;;;-0.59;100.00
78800;BME280;68148;55.328;86.106;2024-03-17T12:05:16;100923.50;;;-0.56;100.00
78800;BME280;68148;55.328;86.106;2024-03-17T12:07:42;100922.00;;;-0.60;100.00
78800;BME280;68148;55.328;86.106;2024-03-17T12:10:11;100925.69;;;-0.64;100.00
78800;BME280;68148;55.328;86.106;2024-03-17T12:12:37;100922.34;;;-0.66;100.00
78800;BME280;68148;55.328;86.106;2024-03-17T12:15:05;100918.16;;;-0.69;100.00
78800;BME280;68148;55.328;86.106;2024-03-17T12:17:41;100915.56;;;-0.69;100.00
78800;BME280;68148;55.328;86.106;2024-03-17T12:20:36;100915.00;;;-0.74;100.00
78800;BME280;68148;55.328;86.106;2024-03-17T12:23:02;100913.25;;;-0.73;100.00
78800;BME280;68148;55.328;86.106;2024-03-17T12:25:27;100905.97;;;-0.83;100.00
78800;BME280;68148;55.328;86.106;2024-03-17T12:28:12;100910.22;;;-0.82;100.00
78800;BME280;68148;55.328;86.106;2024-03-17T12:30:41;100910.84;;;-0.77;100.00
78800;BME280;68148;55.328;86.106;2024-03-17T12:33:10;100912.81;;;-0.82;100.00
78800;BME280;68148;55.328;86.106;2024-03-17T12:35:39;100915.34;;;-0.80;100.00
78800;BME280;68148;55.328;86.106;2024-03-17T12:38:22;100914.59;;;-0.82;100.00
78800;BME280;68148;55.328;86.106;2024-03-17T12:40:51;100912.19;;;-0.85;100.00
78800;BME280;68148;55.328;86.106;2024-03-17T12:43:16;100909.66;;;-0.87;100.00
78800;BME280;68148;55.328;86.106;2024-03-17T12:45:44;100910.69;;;-0.89;100.00
78800;BME280;68148;55.328;86.106;2024-03-17T12:48:13;100918.50;;;-0.91;100.00
78800;BME280;68148;55.328;86.106;2024-03-17T12:50:45;100917.84;;;-0.94;100.00